Time;durP1;ratioP1;P1;durP2;ratioP2;P2;SDS_P1;SDS_P2;PMS_P1;PMS_P2;Temp;Humidity;BMP_temperature;BMP_pressure;BME280_temperature;BME280_humidity;BME280_pressure;Samples;Min_cycle;Max_cycle;Signal;HPM_P1;HPM_P2
2023/04/07 00:01:47;;;;;;;;;;;;;;;;;;5094854;28;20007;-57
2023/04/07 00:04:13;;;;;;;;;;;;;;;;;;5095080;28;19908;-57
2023/04/07 00:06:39;;;;;;;;;;;;;;;;;;5093756;28;20383;-57
2023/04/07 00:09:05;;;;;;;;;;;;;;;;;;5094952;28;19927;-57
2023/04/07 00:11:31;;;;;;;;;;;;;;;;;;5094913;28;19928;-57
2023/04/07 00:13:57;;;;;;;;;;;;;;;;;;5094731;28;20295;-56
2023/04/07 00:16:23;;;;;;;;;;;;;;;;;;5094900;28;20006;-57
2023/04/07 00:18:49;;;;;;;;;;;;;;;;;;5094164;28;19924;-59
2023/04/07 00:21:15;;;;;;;;;;;;;;;;;;5094159;28;20364;-56
2023/04/07 00:23:41;;;;;;;;;;;;;;;;;;5094766;28;19908;-56
2023/04/07 00:26:07;;;;;;;;;;;;;;;;;;5094902;28;19961;-57
2023/04/07 00:28:33;;;;;;;;;;;;;;;;;;5094409;28;20296;-57
2023/04/07 00:30:59;;;;;;;;;;;;;;;;;;5094220;28;19959;-57
2023/04/07 00:33:25;;;;;;;;;;;;;;;;;;5094604;28;20457;-57
2023/04/07 00:35:53;;;;;;;;;;;;;;;;;;5094461;28;19912;-57
2023/04/07 00:38:18;;;;;;;;;;;;;;;;;;5094849;28;19912;-57
2023/04/07 00:40:44;;;;;;;;;;;;;;;;;;5094220;28;19935;-56
2023/04/07 00:43:10;;;;;;;;;;;;;;;;;;5094066;28;19943;-57
2023/04/07 00:45:36;;;;;;;;;;;;;;;;;;5094511;28;20371;-56
2023/04/07 00:48:02;;;;;;;;;;;;;;;;;;5094423;28;19912;-57
2023/04/07 00:50:28;;;;;;;;;;;;;;;;;;5092395;28;19959;-57
2023/04/07 00:52:55;;;;;;;;;;;;;;;;;;5094279;28;20006;-57
2023/04/07 00:55:21;;;;;;;;;;;;;;;;;;5094245;28;19904;-57
2023/04/07 00:57:47;;;;;;;;;;;;;;;;;;5094049;28;20904;-57
2023/04/07 01:00:14;;;;;;;;;;;;;;;;;;5093495;28;19994;-56
2023/04/07 01:02:40;;;;;;;;;;;;;;;;;;5094041;28;19911;-57
2023/04/07 01:05:06;;;;;;;;;;;;;;;;;;5093705;28;19916;-57
2023/04/07 01:07:32;;;;;;;;;;;;;;;;;;5094124;28;19912;-57
2023/04/07 01:10:00;;;;;;;;;;;;;;;;;;5093410;28;19935;-57
2023/04/07 01:12:26;;;;;;;;;;;;;;;;;;5093825;28;19958;-57
2023/04/07 01:14:52;;;;;;;;;;;;;;;;;;5093502;28;19909;-57
2023/04/07 01:17:18;;;;;;;;;;;;;;;;;;5093580;28;20332;-57
2023/04/07 01:19:44;;;;;;;;;;;;;;;;;;5087995;28;20006;-57
2023/04/07 01:22:11;;;;;;;;;;;;;;;;;;5092722;28;19923;-56
2023/04/07 01:24:36;;;;;;;;;;;;;;;;;;5093725;28;19912;-57
2023/04/07 01:27:02;;;;;;;;;;;;;;;;;;5093625;28;19970;-57
2023/04/07 01:29:30;;;;;;;;;;;;;;;;;;5093113;28;20014;-57
2023/04/07 01:31:56;;;;;;;;;;;;;;;;;;5093127;28;19909;-56
2023/04/07 01:34:21;;;;;;;;;;;;;;;;;;5093207;28;19912;-57
2023/04/07 01:36:47;;;;;;;;;;;;;;;;;;5093387;28;20025;-57
2023/04/07 01:39:13;;;;;;;;;;;;;;;;;;5093370;28;19904;-57
2023/04/07 01:41:39;;;;;;;;;;;;;;;;;;5092936;28;20342;-56
2023/04/07 01:44:05;;;;;;;;;;;;;;;;;;5093008;28;20313;-57
2023/04/07 01:46:31;;;;;;;;;;;;;;;;;;5093126;28;19947;-57
2023/04/07 01:48:57;;;;;;;;;;;;;;;;;;5092041;28;19908;-57
2023/04/07 01:51:23;;;;;;;;;;;;;;;;;;5092226;28;20038;-57
2023/04/07 01:53:49;;;;;;;;;;;;;;;;;;5092965;28;19908;-59
2023/04/07 01:56:15;;;;;;;;;;;;;;;;;;5093151;28;19947;-57
2023/04/07 01:58:41;;;;;;;;;;;;;;;;;;5090126;28;20291;-56
2023/04/07 02:01:07;;;;;;;;;;;;;;;;;;5086050;28;19983;-57
2023/04/07 02:03:33;;;;;;;;;;;;;;;;;;5092699;28;19950;-57
2023/04/07 02:05:59;;;;;;;;;;;;;;;;;;5092831;28;19951;-57
2023/04/07 02:08:25;;;;;;;;;;;;;;;;;;5092950;28;20403;-57
2023/04/07 02:10:51;;;;;;;;;;;;;;;;;;5092276;28;19982;-57
2023/04/07 02:13:17;;;;;;;;;;;;;;;;;;5092618;28;19908;-57
2023/04/07 02:15:44;;;;;;;;;;;;;;;;;;5092605;28;19908;-57
2023/04/07 02:18:11;;;;;;;;;;;;;;;;;;5092552;28;19918;-57
2023/04/07 02:20:37;;;;;;;;;;;;;;;;;;5091750;28;19918;-57
2023/04/07 02:23:03;;;;;;;;;;;;;;;;;;5092673;28;20006;-57
2023/04/07 02:25:29;;;;;;;;;;;;;;;;;;5092704;28;19919;-57
2023/04/07 02:27:55;;;;;;;;;;;;;;;;;;5092323;28;20419;-57
2023/04/07 02:30:21;;;;;;;;;;;;;;;;;;5091361;28;19916;-57
2023/04/07 02:32:47;;;;;;;;;;;;;;;;;;5092500;28;19919;-57
2023/04/07 02:35:13;;;;;;;;;;;;;;;;;;5092391;28;19912;-57
2023/04/07 02:37:39;;;;;;;;;;;;;;;;;;5092556;28;19955;-57
2023/04/07 02:40:05;;;;;;;;;;;;;;;;;;5092226;28;19908;-58
2023/04/07 02:42:31;;;;;;;;;;;;;;;;;;5092512;28;20334;-57
2023/04/07 02:44:57;;;;;;;;;;;;;;;;;;5092027;28;20007;-57
2023/04/07 02:47:23;;;;;;;;;;;;;;;;;;5092351;28;20015;-57
2023/04/07 02:49:48;;;;;;;;;;;;;;;;;;5091174;28;20375;-57
2023/04/07 02:52:15;;;;;;;;;;;;;;;;;;5092268;28;19915;-56
2023/04/07 02:54:41;;;;;;;;;;;;;;;;;;5092483;28;19908;-57
2023/04/07 02:57:06;;;;;;;;;;;;;;;;;;5092430;28;19969;-57
2023/04/07 02:59:32;;;;;;;;;;;;;;;;;;5091797;28;19912;-57
2023/04/07 03:01:58;;;;;;;;;;;;;;;;;;5076439;28;19940;-58
2023/04/07 03:04:24;;;;;;;;;;;;;;;;;;5071561;28;19995;-58
2023/04/07 03:06:50;;;;;;;;;;;;;;;;;;5072135;28;20003;-57
2023/04/07 03:09:16;;;;;;;;;;;;;;;;;;5071778;28;19917;-57
2023/04/07 03:11:42;;;;;;;;;;;;;;;;;;5071770;28;20375;-57
2023/04/07 03:14:08;;;;;;;;;;;;;;;;;;5071564;28;19966;-57
2023/04/07 03:16:34;;;;;;;;;;;;;;;;;;5071938;28;19916;-57
2023/04/07 03:19:00;;;;;;;;;;;;;;;;;;5074686;28;19916;-57
2023/04/07 03:21:27;;;;;;;;;;;;;;;;;;5091708;28;19912;-57
2023/04/07 03:23:53;;;;;;;;;;;;;;;;;;5092177;28;19957;-57
2023/04/07 03:26:20;;;;;;;;;;;;;;;;;;5092120;28;20057;-57
2023/04/07 03:28:46;;;;;;;;;;;;;;;;;;5091486;28;19970;-56
2023/04/07 03:31:12;;;;;;;;;;;;;;;;;;5091606;28;20363;-57
2023/04/07 03:33:38;;;;;;;;;;;;;;;;;;5091997;28;19912;-58
2023/04/07 03:36:04;;;;;;;;;;;;;;;;;;5092062;28;19912;-57
2023/04/07 03:38:30;;;;;;;;;;;;;;;;;;5090948;28;19912;-56
2023/04/07 03:40:56;;;;;;;;;;;;;;;;;;5093764;28;19912;-58
2023/04/07 03:43:22;;;;;;;;;;;;;;;;;;5095337;28;20299;-57
2023/04/07 03:45:48;;;;;;;;;;;;;;;;;;5095757;28;19978;-57
2023/04/07 03:48:13;;;;;;;;;;;;;;;;;;5095485;28;19966;-57
2023/04/07 03:50:39;;;;;;;;;;;;;;;;;;5094080;28;19956;-57
2023/04/07 03:53:05;;;;;;;;;;;;;;;;;;5095482;28;20295;-57
2023/04/07 03:55:31;;;;;;;;;;;;;;;;;;5095043;28;19908;-58
2023/04/07 03:57:57;;;;;;;;;;;;;;;;;;5095074;28;19908;-57
2023/04/07 04:00:23;;;;;;;;;;;;;;;;;;5094918;28;19947;-57
2023/04/07 04:02:49;;;;;;;;;;;;;;;;;;5087432;28;19987;-58
2023/04/07 04:05:15;;;;;;;;;;;;;;;;;;5078184;28;20542;-57
2023/04/07 04:07:41;;;;;;;;;;;;;;;;;;5077177;28;19991;-57
2023/04/07 04:10:07;;;;;;;;;;;;;;;;;;5083169;28;19927;-57
2023/04/07 04:12:32;;;;;;;;;;;;;;;;;;5090411;28;20409;-57
2023/04/07 04:14:58;;;;;;;;;;;;;;;;;;5093985;28;19915;-57
2023/04/07 04:17:25;;;;;;;;;;;;;;;;;;5094051;28;20003;-57
2023/04/07 04:19:51;;;;;;;;;;;;;;;;;;5093083;28;19965;-57
2023/04/07 04:22:17;;;;;;;;;;;;;;;;;;5093810;28;20355;-57
2023/04/07 04:24:43;;;;;;;;;;;;;;;;;;5093666;28;19951;-57
2023/04/07 04:27:09;;;;;;;;;;;;;;;;;;5093524;28;19988;-58
2023/04/07 04:29:35;;;;;;;;;;;;;;;;;;5093757;28;20348;-58
2023/04/07 04:32:01;;;;;;;;;;;;;;;;;;5093544;28;20006;-58
2023/04/07 04:34:27;;;;;;;;;;;;;;;;;;5087078;28;19956;-57
2023/04/07 04:36:53;;;;;;;;;;;;;;;;;;5076943;28;20013;-57
2023/04/07 04:39:19;;;;;;;;;;;;;;;;;;5093047;28;19912;-57
2023/04/07 04:41:45;;;;;;;;;;;;;;;;;;5092965;28;20398;-58
2023/04/07 04:44:11;;;;;;;;;;;;;;;;;;5093765;28;19908;-58
2023/04/07 04:46:37;;;;;;;;;;;;;;;;;;5093402;28;20287;-58
2023/04/07 04:49:03;;;;;;;;;;;;;;;;;;5092623;28;20034;-58
2023/04/07 04:51:29;;;;;;;;;;;;;;;;;;5092208;28;19916;-57
2023/04/07 04:53:54;;;;;;;;;;;;;;;;;;5093154;28;19954;-58
2023/04/07 04:56:20;;;;;;;;;;;;;;;;;;5092987;28;20275;-58
2023/04/07 04:58:46;;;;;;;;;;;;;;;;;;5093390;28;19912;-57
2023/04/07 05:01:12;;;;;;;;;;;;;;;;;;5092674;28;19988;-57
2023/04/07 05:03:38;;;;;;;;;;;;;;;;;;5093253;28;20050;-57
2023/04/07 05:06:04;;;;;;;;;;;;;;;;;;5091060;28;20387;-58
2023/04/07 05:08:30;;;;;;;;;;;;;;;;;;5077739;28;19951;-58
2023/04/07 05:10:56;;;;;;;;;;;;;;;;;;5080599;28;20007;-57
2023/04/07 05:13:22;;;;;;;;;;;;;;;;;;5082140;28;19914;-57
2023/04/07 05:15:48;;;;;;;;;;;;;;;;;;5092947;28;19947;-58
2023/04/07 05:18:13;;;;;;;;;;;;;;;;;;5092779;28;19908;-57
2023/04/07 05:20:39;;;;;;;;;;;;;;;;;;5090679;28;19912;-58
2023/04/07 05:23:05;;;;;;;;;;;;;;;;;;5092736;28;19908;-58
2023/04/07 05:25:31;;;;;;;;;;;;;;;;;;5092146;28;19912;-57
2023/04/07 05:27:57;;;;;;;;;;;;;;;;;;5092654;28;19939;-57
2023/04/07 05:30:23;;;;;;;;;;;;;;;;;;5092297;28;20283;-58
2023/04/07 05:32:49;;;;;;;;;;;;;;;;;;5092431;28;19999;-58
2023/04/07 05:35:15;;;;;;;;;;;;;;;;;;5079225;28;19920;-58
2023/04/07 05:37:41;;;;;;;;;;;;;;;;;;5089994;28;19951;-57
2023/04/07 05:40:07;;;;;;;;;;;;;;;;;;5090632;28;19955;-58
2023/04/07 05:42:33;;;;;;;;;;;;;;;;;;5092553;28;19914;-57
2023/04/07 05:44:59;;;;;;;;;;;;;;;;;;5092242;28;20437;-57
2023/04/07 05:47:25;;;;;;;;;;;;;;;;;;5092397;28;19912;-57
2023/04/07 05:49:51;;;;;;;;;;;;;;;;;;5088986;28;20286;-57
2023/04/07 05:52:17;;;;;;;;;;;;;;;;;;5088385;28;19912;-57
2023/04/07 05:54:43;;;;;;;;;;;;;;;;;;5091623;28;19909;-57
2023/04/07 05:57:09;;;;;;;;;;;;;;;;;;5092254;28;19938;-58
2023/04/07 05:59:35;;;;;;;;;;;;;;;;;;5092288;28;19957;-57
2023/04/07 06:02:01;;;;;;;;;;;;;;;;;;5091834;28;19912;-57
2023/04/07 06:04:27;;;;;;;;;;;;;;;;;;5091156;28;19953;-57
2023/04/07 06:06:54;;;;;;;;;;;;;;;;;;5083088;28;20372;-56
2023/04/07 06:09:20;;;;;;;;;;;;;;;;;;5074087;28;20697;-58
2023/04/07 06:11:46;;;;;;;;;;;;;;;;;;5083810;28;20002;-57
2023/04/07 06:14:12;;;;;;;;;;;;;;;;;;5091205;28;19912;-57
2023/04/07 06:16:37;;;;;;;;;;;;;;;;;;5091797;28;19952;-57
2023/04/07 06:19:03;;;;;;;;;;;;;;;;;;5091112;28;20412;-57
2023/04/07 06:21:30;;;;;;;;;;;;;;;;;;5091659;28;19912;-58
2023/04/07 06:23:56;;;;;;;;;;;;;;;;;;5091451;28;19998;-58
2023/04/07 06:26:22;;;;;;;;;;;;;;;;;;5091388;28;20347;-57
2023/04/07 06:28:48;;;;;;;;;;;;;;;;;;5091740;28;19915;-57
2023/04/07 06:31:14;;;;;;;;;;;;;;;;;;5091241;28;19958;-57
2023/04/07 06:33:40;;;;;;;;;;;;;;;;;;5090193;28;19916;-57
2023/04/07 06:36:06;;;;;;;;;;;;;;;;;;5091570;28;20004;-57
2023/04/07 06:38:32;;;;;;;;;;;;;;;;;;5090347;28;19983;-57
2023/04/07 06:40:58;;;;;;;;;;;;;;;;;;5080669;28;19909;-57
2023/04/07 06:43:24;;;;;;;;;;;;;;;;;;5088158;28;19947;-57
2023/04/07 06:45:50;;;;;;;;;;;;;;;;;;5090678;28;20278;-58
2023/04/07 06:48:15;;;;;;;;;;;;;;;;;;5077861;28;20640;-57
2023/04/07 06:50:41;;;;;;;;;;;;;;;;;;5091013;28;19954;-57
2023/04/07 06:53:07;;;;;;;;;;;;;;;;;;5091377;28;19943;-58
2023/04/07 06:55:33;;;;;;;;;;;;;;;;;;5091211;28;19936;-57
2023/04/07 06:57:59;;;;;;;;;;;;;;;;;;5089920;28;19987;-57
2023/04/07 07:00:27;;;;;;;;;;;;;;;;;;5090094;28;19914;-58
2023/04/07 07:02:53;;;;;;;;;;;;;;;;;;5088105;28;19992;-57
2023/04/07 07:05:20;;;;;;;;;;;;;;;;;;5080929;28;19944;-56
2023/04/07 07:07:46;;;;;;;;;;;;;;;;;;5075174;28;20319;-56
2023/04/07 07:10:12;;;;;;;;;;;;;;;;;;5070276;28;20011;-57
2023/04/07 07:12:38;;;;;;;;;;;;;;;;;;5077337;28;19916;-58
2023/04/07 07:15:04;;;;;;;;;;;;;;;;;;5092662;28;19985;-56
2023/04/07 07:17:30;;;;;;;;;;;;;;;;;;5095027;28;20265;-56
2023/04/07 07:19:56;;;;;;;;;;;;;;;;;;5094709;28;19939;-56
2023/04/07 07:22:22;;;;;;;;;;;;;;;;;;5094881;28;20017;-57
2023/04/07 07:24:47;;;;;;;;;;;;;;;;;;5092832;28;20376;-58
2023/04/07 07:27:13;;;;;;;;;;;;;;;;;;5094447;28;19998;-58
2023/04/07 07:29:39;;;;;;;;;;;;;;;;;;5093635;28;19920;-59
2023/04/07 07:32:05;;;;;;;;;;;;;;;;;;5093647;28;20348;-58
2023/04/07 07:34:31;;;;;;;;;;;;;;;;;;5094593;28;19916;-58
2023/04/07 07:36:58;;;;;;;;;;;;;;;;;;5094652;28;19961;-58
2023/04/07 07:39:24;;;;;;;;;;;;;;;;;;5094944;28;19981;-59
2023/04/07 07:41:50;;;;;;;;;;;;;;;;;;5075543;28;19940;-59
2023/04/07 07:44:18;;;;;;;;;;;;;;;;;;5088014;28;19919;-59
2023/04/07 07:46:44;;;;;;;;;;;;;;;;;;5094482;28;19909;-59
2023/04/07 07:49:10;;;;;;;;;;;;;;;;;;5094380;28;19931;-58
2023/04/07 07:51:36;;;;;;;;;;;;;;;;;;5094098;28;20010;-59
2023/04/07 07:54:02;;;;;;;;;;;;;;;;;;5085303;28;19919;-56
2023/04/07 07:56:28;;;;;;;;;;;;;;;;;;5091874;28;20636;-56
2023/04/07 07:58:54;;;;;;;;;;;;;;;;;;5094438;28;19908;-56
2023/04/07 08:01:20;;;;;;;;;;;;;;;;;;5093900;28;19951;-56
2023/04/07 08:03:46;;;;;;;;;;;;;;;;;;5094040;28;20426;-56
2023/04/07 08:06:12;;;;;;;;;;;;;;;;;;5091047;28;20001;-59
2023/04/07 08:08:37;;;;;;;;;;;;;;;;;;5074093;28;20301;-58
2023/04/07 08:11:03;;;;;;;;;;;;;;;;;;5077292;28;19924;-59
2023/04/07 08:13:29;;;;;;;;;;;;;;;;;;5092963;28;19970;-58
2023/04/07 08:15:55;;;;;;;;;;;;;;;;;;5093872;28;19908;-58
2023/04/07 08:18:22;;;;;;;;;;;;;;;;;;5092048;28;20012;-58
2023/04/07 08:20:47;;;;;;;;;;;;;;;;;;5093821;28;19908;-58
2023/04/07 08:23:13;;;;;;;;;;;;;;;;;;5080274;28;19958;-58
2023/04/07 08:25:39;;;;;;;;;;;;;;;;;;5073175;28;19961;-58
2023/04/07 08:28:05;;;;;;;;;;;;;;;;;;5087772;28;19913;-58
2023/04/07 08:30:31;;;;;;;;;;;;;;;;;;5093244;28;19950;-56
2023/04/07 08:32:57;;;;;;;;;;;;;;;;;;5093449;28;19951;-58
2023/04/07 08:35:23;;;;;;;;;;;;;;;;;;5093756;28;20385;-58
2023/04/07 08:37:49;;;;;;;;;;;;;;;;;;5093458;28;20342;-58
2023/04/07 08:40:15;;;;;;;;;;;;;;;;;;5093128;28;19953;-57
2023/04/07 08:42:41;;;;;;;;;;;;;;;;;;5093448;28;19912;-58
2023/04/07 08:45:08;;;;;;;;;;;;;;;;;;5093486;28;19908;-58
2023/04/07 08:47:34;;;;;;;;;;;;;;;;;;5088219;28;20303;-58
2023/04/07 08:50:00;;;;;;;;;;;;;;;;;;5093113;28;19944;-57
2023/04/07 08:52:26;;;;;;;;;;;;;;;;;;5093497;28;19995;-58
2023/04/07 08:54:53;;;;;;;;;;;;;;;;;;5093001;28;20373;-58
2023/04/07 08:57:19;;;;;;;;;;;;;;;;;;5092009;28;19943;-58
2023/04/07 08:59:47;;;;;;;;;;;;;;;;;;5092935;28;19912;-58
2023/04/07 09:02:13;;;;;;;;;;;;;;;;;;5084683;28;19943;-58
2023/04/07 09:04:39;;;;;;;;;;;;;;;;;;5091729;28;20429;-58
2023/04/07 09:07:05;;;;;;;;;;;;;;;;;;5092795;28;20000;-59
2023/04/07 09:09:31;;;;;;;;;;;;;;;;;;5092523;28;20280;-58
2023/04/07 09:11:57;;;;;;;;;;;;;;;;;;5091600;28;20401;-57
2023/04/07 09:14:23;;;;;;;;;;;;;;;;;;5075175;28;19909;-58
2023/04/07 09:16:49;;;;;;;;;;;;;;;;;;5072435;28;20322;-58
2023/04/07 09:19:15;;;;;;;;;;;;;;;;;;5090845;28;20002;-57
2023/04/07 09:21:41;;;;;;;;;;;;;;;;;;5092364;28;19908;-57
2023/04/07 09:24:07;;;;;;;;;;;;;;;;;;5092229;28;19961;-59
2023/04/07 09:26:33;;;;;;;;;;;;;;;;;;5092709;28;19940;-57
2023/04/07 09:28:59;;;;;;;;;;;;;;;;;;5092573;28;20361;-56
2023/04/07 09:31:25;;;;;;;;;;;;;;;;;;5089948;28;19926;-57
2023/04/07 09:33:52;;;;;;;;;;;;;;;;;;5072507;28;19934;-59
2023/04/07 09:36:18;;;;;;;;;;;;;;;;;;5086058;28;19943;-57
2023/04/07 09:38:44;;;;;;;;;;;;;;;;;;5078179;28;19923;-57
2023/04/07 09:41:10;;;;;;;;;;;;;;;;;;5078180;28;19954;-56
2023/04/07 09:43:37;;;;;;;;;;;;;;;;;;5092247;28;19916;-56
2023/04/07 09:46:02;;;;;;;;;;;;;;;;;;5092162;28;19912;-57
2023/04/07 09:48:31;;;;;;;;;;;;;;;;;;5092292;28;20019;-57
2023/04/07 09:50:56;;;;;;;;;;;;;;;;;;5091933;28;19918;-56
2023/04/07 09:53:23;;;;;;;;;;;;;;;;;;5092263;28;19908;-57
2023/04/07 09:55:49;;;;;;;;;;;;;;;;;;5092068;28;20481;-56
2023/04/07 09:58:15;;;;;;;;;;;;;;;;;;5092125;28;19939;-59
2023/04/07 10:00:41;;;;;;;;;;;;;;;;;;5091637;28;19908;-58
2023/04/07 10:03:07;;;;;;;;;;;;;;;;;;5090791;28;20049;-58
2023/04/07 10:05:34;;;;;;;;;;;;;;;;;;5092176;28;19912;-58
2023/04/07 10:08:01;;;;;;;;;;;;;;;;;;5092136;28;19969;-58
2023/04/07 10:10:27;;;;;;;;;;;;;;;;;;5091135;28;19982;-58
2023/04/07 10:12:53;;;;;;;;;;;;;;;;;;5091188;28;19915;-58
2023/04/07 10:15:19;;;;;;;;;;;;;;;;;;5083440;28;19913;-58
2023/04/07 10:17:48;;;;;;;;;;;;;;;;;;5072009;28;19923;-58
2023/04/07 10:20:14;;;;;;;;;;;;;;;;;;5086688;28;19915;-59
2023/04/07 10:22:40;;;;;;;;;;;;;;;;;;5091881;28;19912;-58
2023/04/07 10:25:07;;;;;;;;;;;;;;;;;;5091328;28;19954;-58
2023/04/07 10:27:32;;;;;;;;;;;;;;;;;;5091822;28;19915;-58
2023/04/07 10:29:58;;;;;;;;;;;;;;;;;;5091205;28;19912;-58
2023/04/07 10:32:24;;;;;;;;;;;;;;;;;;5091093;28;19912;-58
2023/04/07 10:34:54;;;;;;;;;;;;;;;;;;5091630;28;19957;-58
2023/04/07 10:37:22;;;;;;;;;;;;;;;;;;5091899;28;20489;-58
2023/04/07 10:39:48;;;;;;;;;;;;;;;;;;5090840;28;19954;-58
2023/04/07 10:42:14;;;;;;;;;;;;;;;;;;5091465;28;19908;-58
2023/04/07 10:44:40;;;;;;;;;;;;;;;;;;5091452;28;20429;-58
2023/04/07 10:47:06;;;;;;;;;;;;;;;;;;5090530;28;19919;-58
2023/04/07 10:49:33;;;;;;;;;;;;;;;;;;5091190;28;19916;-59
2023/04/07 10:51:59;;;;;;;;;;;;;;;;;;5095417;28;19912;-59
2023/04/07 10:54:26;;;;;;;;;;;;;;;;;;5095303;28;20003;-58
2023/04/07 10:56:52;;;;;;;;;;;;;;;;;;5095751;28;19908;-58
2023/04/07 10:59:22;;;;;;;;;;;;;;;;;;5095598;28;19919;-58
2023/04/07 11:01:49;;;;;;;;;;;;;;;;;;5084652;28;19948;-58
2023/04/07 11:04:15;;;;;;;;;;;;;;;;;;5077556;28;20307;-58
2023/04/07 11:06:41;;;;;;;;;;;;;;;;;;5095531;28;19966;-58
2023/04/07 11:09:07;;;;;;;;;;;;;;;;;;5095055;28;19955;-58
2023/04/07 11:11:33;;;;;;;;;;;;;;;;;;5094900;28;20303;-58
2023/04/07 11:13:59;;;;;;;;;;;;;;;;;;5094717;28;19912;-58
2023/04/07 11:16:25;;;;;;;;;;;;;;;;;;5091782;28;19952;-58
2023/04/07 11:18:51;;;;;;;;;;;;;;;;;;5077581;28;19974;-57
2023/04/07 11:21:17;;;;;;;;;;;;;;;;;;5085300;28;20007;-58
2023/04/07 11:23:43;;;;;;;;;;;;;;;;;;5095020;28;20003;-58
2023/04/07 11:26:10;;;;;;;;;;;;;;;;;;5093805;28;20314;-58
2023/04/07 11:28:36;;;;;;;;;;;;;;;;;;5094266;28;19912;-58
2023/04/07 11:31:02;;;;;;;;;;;;;;;;;;5094608;28;19929;-58
2023/04/07 11:33:28;;;;;;;;;;;;;;;;;;5094851;28;19999;-58
2023/04/07 11:35:54;;;;;;;;;;;;;;;;;;5093856;28;20419;-58
2023/04/07 11:38:20;;;;;;;;;;;;;;;;;;5094197;28;19912;-58
2023/04/07 11:40:46;;;;;;;;;;;;;;;;;;5093255;28;19951;-58
2023/04/07 11:43:12;;;;;;;;;;;;;;;;;;5093565;28;20365;-57
2023/04/07 11:45:38;;;;;;;;;;;;;;;;;;5092226;28;19973;-58
2023/04/07 11:48:04;;;;;;;;;;;;;;;;;;5092370;28;19912;-58
2023/04/07 11:50:30;;;;;;;;;;;;;;;;;;5094286;28;19950;-58
2023/04/07 11:52:56;;;;;;;;;;;;;;;;;;5093095;28;19999;-58
2023/04/07 11:55:23;;;;;;;;;;;;;;;;;;5093943;28;20054;-57
2023/04/07 11:57:50;;;;;;;;;;;;;;;;;;5094537;28;19995;-58
2023/04/07 12:00:17;;;;;;;;;;;;;;;;;;5090567;28;19908;-58
2023/04/07 12:02:43;;;;;;;;;;;;;;;;;;5090389;28;19916;-58
2023/04/07 12:05:09;;;;;;;;;;;;;;;;;;5093703;28;19956;-58
2023/04/07 12:07:35;;;;;;;;;;;;;;;;;;5093782;28;20448;-58
2023/04/07 12:10:01;;;;;;;;;;;;;;;;;;5093470;28;19955;-57
2023/04/07 12:12:27;;;;;;;;;;;;;;;;;;5088070;28;20011;-58
2023/04/07 12:14:53;;;;;;;;;;;;;;;;;;5085278;28;20077;-57
2023/04/07 12:17:19;;;;;;;;;;;;;;;;;;5092757;28;20414;-58
2023/04/07 12:19:45;;;;;;;;;;;;;;;;;;5093494;28;19912;-58
2023/04/07 12:22:11;;;;;;;;;;;;;;;;;;5092685;28;19934;-58
2023/04/07 12:24:37;;;;;;;;;;;;;;;;;;5093567;28;19920;-58
2023/04/07 12:27:03;;;;;;;;;;;;;;;;;;5086597;28;20047;-58
2023/04/07 12:29:29;;;;;;;;;;;;;;;;;;5073495;28;19912;-58
2023/04/07 12:31:55;;;;;;;;;;;;;;;;;;5091157;28;20277;-58
2023/04/07 12:34:21;;;;;;;;;;;;;;;;;;5093795;28;19908;-57
2023/04/07 12:36:47;;;;;;;;;;;;;;;;;;5091821;28;19916;-58
2023/04/07 12:39:13;;;;;;;;;;;;;;;;;;5074173;28;19923;-56
2023/04/07 12:41:39;;;;;;;;;;;;;;;;;;5079285;28;19978;-58
2023/04/07 12:44:05;;;;;;;;;;;;;;;;;;5081212;28;20333;-58
2023/04/07 12:46:31;;;;;;;;;;;;;;;;;;5079016;28;19951;-58
2023/04/07 12:48:56;;;;;;;;;;;;;;;;;;5072215;28;19955;-58
2023/04/07 12:51:22;;;;;;;;;;;;;;;;;;5069941;28;19924;-59
2023/04/07 12:53:49;;;;;;;;;;;;;;;;;;5086317;28;19955;-58
2023/04/07 12:56:15;;;;;;;;;;;;;;;;;;5081808;28;19912;-59
2023/04/07 12:58:41;;;;;;;;;;;;;;;;;;5083999;28;20331;-58
2023/04/07 13:01:07;;;;;;;;;;;;;;;;;;5077144;28;19943;-58
2023/04/07 13:03:33;;;;;;;;;;;;;;;;;;5089765;28;19947;-59
2023/04/07 13:06:00;;;;;;;;;;;;;;;;;;5087848;28;20338;-58
2023/04/07 13:08:26;;;;;;;;;;;;;;;;;;5085988;28;19951;-58
2023/04/07 13:10:52;;;;;;;;;;;;;;;;;;5087458;28;19967;-58
2023/04/07 13:13:18;;;;;;;;;;;;;;;;;;5083078;28;20477;-58
2023/04/07 13:15:43;;;;;;;;;;;;;;;;;;5085423;28;19916;-58
2023/04/07 13:18:09;;;;;;;;;;;;;;;;;;5079688;28;20561;-58
2023/04/07 13:20:36;;;;;;;;;;;;;;;;;;5082348;28;19916;-58
2023/04/07 13:23:02;;;;;;;;;;;;;;;;;;5084445;28;19923;-58
2023/04/07 13:25:28;;;;;;;;;;;;;;;;;;5078798;28;19960;-58
2023/04/07 13:27:54;;;;;;;;;;;;;;;;;;5084716;28;20005;-58
2023/04/07 13:30:20;;;;;;;;;;;;;;;;;;5080552;28;19920;-58
2023/04/07 13:32:47;;;;;;;;;;;;;;;;;;5089157;28;19935;-60
2023/04/07 13:35:14;;;;;;;;;;;;;;;;;;5087370;28;19920;-58
2023/04/07 13:37:40;;;;;;;;;;;;;;;;;;5079532;28;19913;-58
2023/04/07 13:40:06;;;;;;;;;;;;;;;;;;5068715;28;20450;-58
2023/04/07 13:42:32;;;;;;;;;;;;;;;;;;5066840;28;19920;-58
2023/04/07 13:44:58;;;;;;;;;;;;;;;;;;5064733;28;20061;-58
2023/04/07 13:47:24;;;;;;;;;;;;;;;;;;5076458;28;19926;-58
2023/04/07 13:49:53;;;;;;;;;;;;;;;;;;5075420;28;19970;-58
2023/04/07 13:52:18;;;;;;;;;;;;;;;;;;5081396;28;19924;-58
2023/04/07 13:54:44;;;;;;;;;;;;;;;;;;5077374;28;19991;-57
2023/04/07 13:57:11;;;;;;;;;;;;;;;;;;5073730;28;19916;-58
2023/04/07 13:59:36;;;;;;;;;;;;;;;;;;5082601;28;19916;-57
2023/04/07 14:02:02;;;;;;;;;;;;;;;;;;5076700;28;19958;-58
2023/04/07 14:04:28;;;;;;;;;;;;;;;;;;5081651;28;20364;-57
2023/04/07 14:06:54;;;;;;;;;;;;;;;;;;5085056;28;19916;-58
2023/04/07 14:09:20;;;;;;;;;;;;;;;;;;5080644;28;19920;-57
2023/04/07 14:11:47;;;;;;;;;;;;;;;;;;5081979;28;20393;-57
2023/04/07 14:14:13;;;;;;;;;;;;;;;;;;5089505;28;19919;-57
2023/04/07 14:16:39;;;;;;;;;;;;;;;;;;5086292;28;19947;-57
2023/04/07 14:19:05;;;;;;;;;;;;;;;;;;5091718;28;19931;-58
2023/04/07 14:21:31;;;;;;;;;;;;;;;;;;5091689;28;19914;-57
2023/04/07 14:23:57;;;;;;;;;;;;;;;;;;5081229;28;20003;-57
2023/04/07 14:26:23;;;;;;;;;;;;;;;;;;5090259;28;20346;-57
2023/04/07 14:28:49;;;;;;;;;;;;;;;;;;5077045;28;19919;-58
2023/04/07 14:31:15;;;;;;;;;;;;;;;;;;5086218;28;19955;-57
2023/04/07 14:33:41;;;;;;;;;;;;;;;;;;5091375;28;19977;-57
2023/04/07 14:36:07;;;;;;;;;;;;;;;;;;5084267;28;19913;-57
2023/04/07 14:38:33;;;;;;;;;;;;;;;;;;5082682;28;20387;-57
2023/04/07 14:41:00;;;;;;;;;;;;;;;;;;5085225;28;20403;-59
2023/04/07 14:43:26;;;;;;;;;;;;;;;;;;5076626;28;19931;-57
2023/04/07 14:45:52;;;;;;;;;;;;;;;;;;5078021;28;19960;-57
2023/04/07 14:48:18;;;;;;;;;;;;;;;;;;5083802;28;19947;-57
2023/04/07 14:50:45;;;;;;;;;;;;;;;;;;5078948;28;19947;-57
2023/04/07 14:53:11;;;;;;;;;;;;;;;;;;5080260;28;19927;-57
2023/04/07 14:55:37;;;;;;;;;;;;;;;;;;5078075;28;19959;-57
2023/04/07 14:58:02;;;;;;;;;;;;;;;;;;5079064;28;19956;-57
2023/04/07 15:00:28;;;;;;;;;;;;;;;;;;5080913;28;20007;-57
2023/04/07 15:02:54;;;;;;;;;;;;;;;;;;5090735;28;19922;-57
2023/04/07 15:05:21;;;;;;;;;;;;;;;;;;5090697;28;19943;-58
2023/04/07 15:07:49;;;;;;;;;;;;;;;;;;5087008;28;19913;-58
2023/04/07 15:10:17;;;;;;;;;;;;;;;;;;5079413;28;20388;-57
2023/04/07 15:12:45;;;;;;;;;;;;;;;;;;5080932;28;19912;-58
2023/04/07 15:15:11;;;;;;;;;;;;;;;;;;5078962;28;19916;-57
2023/04/07 15:17:36;;;;;;;;;;;;;;;;;;5077418;28;20384;-58
2023/04/07 15:20:02;;;;;;;;;;;;;;;;;;5074541;28;19920;-58
2023/04/07 15:22:30;;;;;;;;;;;;;;;;;;5076065;28;21512;-58
2023/04/07 15:24:56;;;;;;;;;;;;;;;;;;5079552;28;21246;-57
2023/04/07 15:27:22;;;;;;;;;;;;;;;;;;5080176;28;19955;-59
2023/04/07 15:29:48;;;;;;;;;;;;;;;;;;5078814;28;19951;-58
2023/04/07 15:32:14;;;;;;;;;;;;;;;;;;5078760;28;19919;-57
2023/04/07 15:34:40;;;;;;;;;;;;;;;;;;5079906;28;19920;-58
2023/04/07 15:37:06;;;;;;;;;;;;;;;;;;5080044;28;19917;-58
2023/04/07 15:39:32;;;;;;;;;;;;;;;;;;5087937;28;20283;-58
2023/04/07 15:41:58;;;;;;;;;;;;;;;;;;5092408;28;19938;-57
2023/04/07 15:44:24;;;;;;;;;;;;;;;;;;5092423;28;19926;-58
2023/04/07 15:46:50;;;;;;;;;;;;;;;;;;5081073;28;19916;-58
2023/04/07 15:49:20;;;;;;;;;;;;;;;;;;5084796;28;20003;-58
2023/04/07 15:51:46;;;;;;;;;;;;;;;;;;5081199;28;19916;-58
2023/04/07 15:54:12;;;;;;;;;;;;;;;;;;5082485;28;19959;-57
2023/04/07 15:56:38;;;;;;;;;;;;;;;;;;5085237;28;20333;-58
2023/04/07 15:59:04;;;;;;;;;;;;;;;;;;5082883;28;20007;-58
2023/04/07 16:01:30;;;;;;;;;;;;;;;;;;5077604;28;19908;-57
2023/04/07 16:03:56;;;;;;;;;;;;;;;;;;5079867;28;19990;-58
2023/04/07 16:06:22;;;;;;;;;;;;;;;;;;5087681;28;20668;-57
2023/04/07 16:08:48;;;;;;;;;;;;;;;;;;5081289;28;19916;-57
2023/04/07 16:11:14;;;;;;;;;;;;;;;;;;5093223;28;19951;-57
2023/04/07 16:13:40;;;;;;;;;;;;;;;;;;5079696;28;19913;-58
2023/04/07 16:16:06;;;;;;;;;;;;;;;;;;5085823;28;20381;-57
2023/04/07 16:18:32;;;;;;;;;;;;;;;;;;5091706;28;19923;-58
2023/04/07 16:20:58;;;;;;;;;;;;;;;;;;5088052;28;19943;-57
2023/04/07 16:23:24;;;;;;;;;;;;;;;;;;5085232;28;19952;-58
2023/04/07 16:25:50;;;;;;;;;;;;;;;;;;5085400;28;20272;-57
2023/04/07 16:28:16;;;;;;;;;;;;;;;;;;5090388;28;19908;-57
2023/04/07 16:30:41;;;;;;;;;;;;;;;;;;5089945;28;19912;-56
2023/04/07 16:33:07;;;;;;;;;;;;;;;;;;5084621;28;19950;-58
2023/04/07 16:35:33;;;;;;;;;;;;;;;;;;5083376;28;19916;-57
2023/04/07 16:38:04;;;;;;;;;;;;;;;;;;5084961;28;20384;-57